createdAt,value
2019-03-23T00:00:01.902Z,31.62
2019-03-23T00:01:37.812Z,29.70
2019-03-23T00:03:12.790Z,29.18
2019-03-23T00:04:48.022Z,27.67
2019-03-23T00:06:30.418Z,26.97
2019-03-23T00:07:59.819Z,29.02
2019-03-23T00:09:34.950Z,27.87
2019-03-23T00:11:09.888Z,29.55
2019-03-23T00:12:45.002Z,30.50
2019-03-23T00:14:19.914Z,27.55
2019-03-23T00:15:54.831Z,25.90
2019-03-23T00:17:30.003Z,24.37
2019-03-23T00:19:05.058Z,26.93
2019-03-23T00:20:39.960Z,29.42
2019-03-23T00:22:15.100Z,30.70
2019-03-23T00:23:50.224Z,30.27
2019-03-23T00:25:25.130Z,30.65
2019-03-23T00:27:00.154Z,30.05
2019-03-23T00:28:35.426Z,31.75
2019-03-23T00:30:11.538Z,31.12
2019-03-23T00:31:46.461Z,31.33
2019-03-23T00:33:21.377Z,28.30
2019-03-23T00:34:56.664Z,29.45
2019-03-23T00:36:41.055Z,30.57
2019-03-23T00:38:08.283Z,31.55
2019-03-23T00:39:43.252Z,29.65
2019-03-23T00:41:18.850Z,30.88
2019-03-23T00:42:54.691Z,33.58
2019-03-23T00:44:30.547Z,32.20
2019-03-23T00:46:06.147Z,30.23
2019-03-23T00:47:41.775Z,31.65
2019-03-23T00:49:17.363Z,31.93
2019-03-23T00:50:53.021Z,32.80
2019-03-23T00:52:28.861Z,33.30
2019-03-23T00:54:04.568Z,32.88
2019-03-23T00:55:40.158Z,32.75
2019-03-23T00:57:15.974Z,32.90
2019-03-23T00:58:51.803Z,33.13
2019-03-23T01:00:27.418Z,32.13
2019-03-23T01:02:03.121Z,28.27
2019-03-23T01:03:39.046Z,29.10
2019-03-23T01:05:14.800Z,30.52
2019-03-23T01:06:52.404Z,29.23
2019-03-23T01:08:26.708Z,28.30
2019-03-23T01:10:01.909Z,28.05
2019-03-23T01:11:37.167Z,28.38
2019-03-23T01:13:12.144Z,34.60
2019-03-23T01:14:47.447Z,29.12
2019-03-23T01:16:22.401Z,27.70
2019-03-23T01:17:57.738Z,25.30
2019-03-23T01:19:32.661Z,24.90
2019-03-23T01:21:07.969Z,25.10
2019-03-23T01:22:43.030Z,25.25
2019-03-23T01:24:18.338Z,25.20
2019-03-23T01:25:53.242Z,23.07
2019-03-23T01:27:28.143Z,27.50
2019-03-23T01:29:03.045Z,26.73
2019-03-23T01:30:38.243Z,24.70
2019-03-23T01:32:13.196Z,24.23
2019-03-23T01:33:48.163Z,24.35
2019-03-23T01:35:23.238Z,22.62
2019-03-23T01:37:02.780Z,23.22
2019-03-23T01:38:35.557Z,25.00
2019-03-23T01:40:10.789Z,24.63
2019-03-23T01:41:45.827Z,24.57
2019-03-23T01:43:20.755Z,27.65
2019-03-23T01:44:55.689Z,25.90
2019-03-23T01:46:30.590Z,24.67
2019-03-23T01:48:05.493Z,23.92
2019-03-23T01:49:41.465Z,24.45
2019-03-23T01:51:16.637Z,24.72
2019-03-23T01:52:52.039Z,27.15
2019-03-23T01:54:26.950Z,29.15
2019-03-23T01:56:01.889Z,27.07
2019-03-23T01:57:37.514Z,27.82
2019-03-23T01:59:12.683Z,28.85
2019-03-23T02:00:48.087Z,28.80
2019-03-23T02:02:23.341Z,30.57
2019-03-23T02:03:58.507Z,30.23
2019-03-23T02:05:33.739Z,32.28
2019-03-23T02:07:13.855Z,34.05
2019-03-23T02:08:45.630Z,33.38
2019-03-23T02:10:20.726Z,30.72
2019-03-23T02:11:55.891Z,33.23
2019-03-23T02:13:30.880Z,37.17
2019-03-23T02:15:07.165Z,36.00
2019-03-23T02:16:42.070Z,34.13
2019-03-23T02:18:17.259Z,35.43
2019-03-23T02:19:52.236Z,35.15
2019-03-23T02:21:27.161Z,38.95
2019-03-23T02:23:02.078Z,36.42
2019-03-23T02:24:36.983Z,36.35
2019-03-23T02:26:12.164Z,33.65
2019-03-23T02:27:47.089Z,34.03
2019-03-23T02:29:22.270Z,34.65
2019-03-23T02:30:57.183Z,34.55
2019-03-23T02:32:32.323Z,33.88
2019-03-23T02:34:07.495Z,34.23
2019-03-23T02:35:42.398Z,34.63
2019-03-23T02:37:27.162Z,33.40
2019-03-23T02:38:53.958Z,31.65
2019-03-23T02:40:29.197Z,30.00
2019-03-23T02:42:04.270Z,28.62
2019-03-23T02:43:39.368Z,31.35
2019-03-23T02:45:14.529Z,33.28
2019-03-23T02:46:49.539Z,32.85
2019-03-23T02:48:24.445Z,32.63
2019-03-23T02:49:59.451Z,33.53
2019-03-23T02:51:34.359Z,33.45
2019-03-23T02:53:09.514Z,33.95
2019-03-23T02:54:44.419Z,33.60
2019-03-23T02:56:19.638Z,32.45
2019-03-23T02:57:54.558Z,32.93
2019-03-23T02:59:29.783Z,31.73
2019-03-23T03:01:04.763Z,32.05
2019-03-23T03:02:40.508Z,31.02
2019-03-23T03:04:15.406Z,31.00
2019-03-23T03:05:50.308Z,32.03
2019-03-23T03:07:25.203Z,34.70
2019-03-23T03:09:00.135Z,33.53
2019-03-23T03:10:41.922Z,32.05
2019-03-23T03:12:16.958Z,31.20
2019-03-23T03:13:51.984Z,31.73
2019-03-23T03:15:27.088Z,31.57
2019-03-23T03:17:02.145Z,32.35
2019-03-23T03:18:37.069Z,30.48
2019-03-23T03:20:12.106Z,30.95
2019-03-23T03:21:47.358Z,29.70
2019-03-23T03:23:22.561Z,29.67
2019-03-23T03:24:57.595Z,30.08
2019-03-23T03:26:32.500Z,30.27
2019-03-23T03:28:07.741Z,28.92
2019-03-23T03:29:42.676Z,31.55
2019-03-23T03:31:17.872Z,31.33
2019-03-23T03:32:52.774Z,29.12
2019-03-23T03:34:27.936Z,27.98
2019-03-23T03:36:02.843Z,29.48
2019-03-23T03:37:38.047Z,31.60
2019-03-23T03:39:13.055Z,32.30
2019-03-23T03:40:48.081Z,34.48
2019-03-23T03:42:23.047Z,36.65
2019-03-23T03:43:58.145Z,35.78
2019-03-23T03:45:33.099Z,33.10
2019-03-23T03:47:08.079Z,31.45
2019-03-23T03:48:42.980Z,29.00
2019-03-23T03:50:18.055Z,29.10
2019-03-23T03:51:53.073Z,26.82
2019-03-23T03:53:28.042Z,29.35
2019-03-23T03:55:02.986Z,30.23
2019-03-23T03:56:38.170Z,31.80
2019-03-23T03:58:13.322Z,30.37
2019-03-23T03:59:48.485Z,31.57
2019-03-23T04:01:23.639Z,34.48
2019-03-23T04:02:58.696Z,34.92
2019-03-23T04:04:33.971Z,32.15
2019-03-23T04:06:08.888Z,29.95
2019-03-23T04:07:43.859Z,26.52
2019-03-23T04:09:18.874Z,26.42
2019-03-23T04:10:53.840Z,25.70
2019-03-23T04:12:29.042Z,26.37
2019-03-23T04:14:04.010Z,25.02
2019-03-23T04:15:38.939Z,25.35
2019-03-23T04:17:13.841Z,23.62
2019-03-23T04:18:49.720Z,26.55
2019-03-23T04:20:24.619Z,28.05
2019-03-23T04:21:59.876Z,30.25
2019-03-23T04:23:34.847Z,31.35
2019-03-23T04:25:10.840Z,30.92
2019-03-23T04:26:45.792Z,31.07
2019-03-23T04:28:20.800Z,34.30
2019-03-23T04:29:55.764Z,30.02
2019-03-23T04:31:30.709Z,26.30
2019-03-23T04:33:05.603Z,27.45
2019-03-23T04:34:40.758Z,26.45
2019-03-23T04:36:15.683Z,27.75
2019-03-23T04:37:50.579Z,25.88
2019-03-23T04:39:25.474Z,25.55
2019-03-23T04:41:00.630Z,25.10
2019-03-23T04:42:35.755Z,26.82
2019-03-23T04:44:10.655Z,26.37
2019-03-23T04:45:45.653Z,27.02
2019-03-23T04:47:20.635Z,26.52
2019-03-23T04:48:55.541Z,26.57
2019-03-23T04:50:30.437Z,25.68
2019-03-23T04:52:05.640Z,26.50
2019-03-23T04:53:40.631Z,25.12
2019-03-23T04:55:15.604Z,26.77
2019-03-23T04:56:50.538Z,26.12
2019-03-23T04:58:25.433Z,26.20
2019-03-23T05:00:00.689Z,25.90
2019-03-23T05:01:36.044Z,25.15
2019-03-23T05:03:10.933Z,24.20
2019-03-23T05:04:46.069Z,24.90
2019-03-23T05:06:20.999Z,24.80
2019-03-23T05:07:56.221Z,25.52
2019-03-23T05:09:31.171Z,24.82
2019-03-23T05:11:06.066Z,24.12
2019-03-23T05:12:41.006Z,24.82
2019-03-23T05:14:15.894Z,26.23
2019-03-23T05:15:51.049Z,26.25
2019-03-23T05:17:26.527Z,26.45
2019-03-23T05:19:01.536Z,26.07
2019-03-23T05:20:36.850Z,25.85
2019-03-23T05:22:12.018Z,26.15
2019-03-23T05:23:46.917Z,24.72
2019-03-23T05:25:24.886Z,25.08
2019-03-23T05:26:59.890Z,25.50
2019-03-23T05:28:34.781Z,25.55
2019-03-23T05:30:09.958Z,27.25
2019-03-23T05:31:44.873Z,29.35
2019-03-23T05:33:19.761Z,34.98
2019-03-23T05:34:54.685Z,33.92
2019-03-23T05:36:29.616Z,36.28
2019-03-23T05:38:04.554Z,34.38
2019-03-23T05:39:39.453Z,30.77
2019-03-23T05:41:14.361Z,28.83
2019-03-23T05:42:49.905Z,28.00
2019-03-23T05:44:25.516Z,24.98
2019-03-23T05:46:01.100Z,23.57
2019-03-23T05:47:36.706Z,24.50
2019-03-23T05:49:12.810Z,23.70
2019-03-23T05:50:48.433Z,22.90
2019-03-23T05:52:24.264Z,21.65
2019-03-23T05:54:00.107Z,23.05
2019-03-23T05:55:36.001Z,19.92
2019-03-23T05:57:11.915Z,21.10
2019-03-23T05:58:47.761Z,20.43
2019-03-23T06:00:23.420Z,18.00
2019-03-23T06:01:59.294Z,18.67
2019-03-23T06:03:35.297Z,17.50
2019-03-23T06:05:10.892Z,17.37
2019-03-23T06:06:46.741Z,17.53
2019-03-23T06:08:22.336Z,19.13
2019-03-23T06:09:58.214Z,18.40
2019-03-23T06:11:34.045Z,16.77
2019-03-23T06:13:10.224Z,17.67
2019-03-23T06:14:46.320Z,17.13
2019-03-23T06:16:22.109Z,17.73
2019-03-23T06:17:57.980Z,16.10
2019-03-23T06:19:33.574Z,16.73
2019-03-23T06:21:09.435Z,16.27
2019-03-23T06:22:45.359Z,19.53
2019-03-23T06:24:20.947Z,18.47
2019-03-23T06:25:57.765Z,20.70
2019-03-23T06:27:33.348Z,21.83
2019-03-23T06:29:09.247Z,22.57
2019-03-23T06:30:45.138Z,21.83
2019-03-23T06:32:20.998Z,22.47
2019-03-23T06:33:56.818Z,24.10
2019-03-23T06:35:32.860Z,22.87
2019-03-23T06:37:08.706Z,23.00
2019-03-23T06:38:44.578Z,24.23
2019-03-23T06:40:20.418Z,24.63
2019-03-23T06:41:56.045Z,24.17
2019-03-23T06:43:31.629Z,24.43
2019-03-23T06:45:08.411Z,23.73
2019-03-23T06:46:44.238Z,25.17
2019-03-23T06:48:19.874Z,27.00
2019-03-23T06:49:55.745Z,25.80
2019-03-23T06:51:31.426Z,26.83
2019-03-23T06:53:07.268Z,26.20
2019-03-23T06:54:43.170Z,26.13
2019-03-23T06:56:18.771Z,27.50
2019-03-23T06:57:54.840Z,27.00
2019-03-23T06:59:30.937Z,26.07
2019-03-23T07:01:06.811Z,27.77
2019-03-23T07:02:42.404Z,29.43
2019-03-23T07:04:18.262Z,29.57
2019-03-23T07:05:53.853Z,31.37
2019-03-23T07:07:29.564Z,30.73
2019-03-23T07:09:15.724Z,30.63
2019-03-23T07:10:43.886Z,30.03
2019-03-23T07:12:19.468Z,29.93
2019-03-23T07:13:55.562Z,30.93
2019-03-23T07:15:31.158Z,29.40
2019-03-23T07:17:06.976Z,29.77
2019-03-23T07:18:42.657Z,30.23
2019-03-23T07:20:18.487Z,27.80
2019-03-23T07:21:54.078Z,30.23
2019-03-23T07:23:30.481Z,29.57
2019-03-23T07:25:07.601Z,28.33
2019-03-23T07:26:43.460Z,28.80
2019-03-23T07:28:19.120Z,28.73
2019-03-23T07:29:54.730Z,28.93
2019-03-23T07:31:30.325Z,29.60
2019-03-23T07:33:06.203Z,29.40
2019-03-23T07:34:41.809Z,28.43
2019-03-23T07:36:17.634Z,29.47
2019-03-23T07:37:53.225Z,31.90
2019-03-23T07:39:30.496Z,30.97
2019-03-23T07:41:06.571Z,31.07
2019-03-23T07:42:42.215Z,31.10
2019-03-23T07:44:18.128Z,28.87
2019-03-23T07:45:53.811Z,27.40
2019-03-23T07:47:29.401Z,27.97
2019-03-23T07:49:05.100Z,28.07
2019-03-23T07:50:40.722Z,29.53
2019-03-23T07:52:16.312Z,27.40
2019-03-23T07:53:52.005Z,29.13
2019-03-23T07:55:27.619Z,28.30
2019-03-23T07:57:03.654Z,27.77
2019-03-23T07:58:39.552Z,27.30
2019-03-23T08:00:18.507Z,28.37
2019-03-23T08:01:54.134Z,28.83
2019-03-23T08:03:29.069Z,28.77
2019-03-23T08:05:04.223Z,28.73
2019-03-23T08:06:39.247Z,27.67
2019-03-23T08:08:14.207Z,28.77
2019-03-23T08:09:49.341Z,27.97
2019-03-23T08:11:24.246Z,27.23
2019-03-23T08:12:59.225Z,28.10
2019-03-23T08:14:36.062Z,27.50
2019-03-23T08:16:11.438Z,26.60
2019-03-23T08:17:47.296Z,28.00
2019-03-23T08:19:22.881Z,27.37
2019-03-23T08:20:58.526Z,27.33
2019-03-23T08:22:34.115Z,25.73
2019-03-23T08:24:09.702Z,25.97
2019-03-23T08:25:45.285Z,27.43
2019-03-23T08:27:20.914Z,27.03
2019-03-23T08:28:56.580Z,26.87
2019-03-23T08:30:32.267Z,26.00
2019-03-23T08:32:07.875Z,25.07
2019-03-23T08:33:43.707Z,24.07
2019-03-23T08:35:19.549Z,26.10
2019-03-23T08:36:55.473Z,24.97
2019-03-23T08:38:31.529Z,24.37
2019-03-23T08:40:09.014Z,24.20
2019-03-23T08:41:44.856Z,23.93
2019-03-23T08:43:20.746Z,24.23
2019-03-23T08:44:56.336Z,23.87
2019-03-23T08:46:32.427Z,23.50
2019-03-23T08:48:08.314Z,23.60
2019-03-23T08:49:43.900Z,24.87
2019-03-23T08:51:19.499Z,24.57
2019-03-23T08:52:55.360Z,25.10
2019-03-23T08:54:31.219Z,22.57
2019-03-23T08:56:06.814Z,21.00
2019-03-23T08:57:42.409Z,22.43
2019-03-23T08:59:18.266Z,23.07
2019-03-23T09:00:53.958Z,21.60
2019-03-23T09:02:30.040Z,23.40
2019-03-23T09:04:05.627Z,21.63
2019-03-23T09:05:41.246Z,21.43
2019-03-23T09:07:16.868Z,21.20
2019-03-23T09:08:52.459Z,22.37
2019-03-23T09:10:28.322Z,19.53
2019-03-23T09:12:03.924Z,17.47
2019-03-23T09:13:40.976Z,19.17
2019-03-23T09:15:16.962Z,18.50
2019-03-23T09:16:52.559Z,17.53
2019-03-23T09:18:28.153Z,18.57
2019-03-23T09:20:04.469Z,18.20
2019-03-23T09:21:40.558Z,17.40
2019-03-23T09:23:15.813Z,16.47
2019-03-23T09:24:51.624Z,15.77
2019-03-23T09:26:27.364Z,15.50
2019-03-23T09:28:03.014Z,16.63
2019-03-23T09:29:38.603Z,16.37
2019-03-23T09:31:14.491Z,16.50
2019-03-23T09:32:50.106Z,16.07
2019-03-23T09:34:25.700Z,16.07
2019-03-23T09:36:01.294Z,15.97
2019-03-23T09:37:38.334Z,15.00
2019-03-23T09:39:14.424Z,13.53
2019-03-23T09:40:50.248Z,12.80
2019-03-23T09:42:25.950Z,17.07
2019-03-23T09:44:01.544Z,15.97
2019-03-23T09:45:37.480Z,16.83
2019-03-23T09:47:13.079Z,15.73
2019-03-23T09:48:48.927Z,14.77
2019-03-23T09:50:24.520Z,14.23
2019-03-23T09:52:00.163Z,14.97
2019-03-23T09:53:35.750Z,15.77
2019-03-23T09:55:11.654Z,15.07
2019-03-23T09:56:47.233Z,13.73
2019-03-23T09:58:23.187Z,14.07
2019-03-23T09:59:58.779Z,13.03
2019-03-23T10:01:34.554Z,10.90
2019-03-23T10:03:10.394Z,9.70
2019-03-23T10:04:45.998Z,9.97
2019-03-23T10:06:21.589Z,9.73
2019-03-23T10:07:57.515Z,9.73
2019-03-23T10:09:33.353Z,10.80
2019-03-23T10:11:08.958Z,10.23
2019-03-23T10:12:44.554Z,9.87
2019-03-23T10:14:20.190Z,10.00
2019-03-23T10:15:55.817Z,9.07
2019-03-23T10:17:31.888Z,8.03
2019-03-23T10:19:07.473Z,7.30
2019-03-23T10:20:43.072Z,6.73
2019-03-23T10:22:18.929Z,6.60
2019-03-23T10:23:54.689Z,6.20
2019-03-23T10:25:30.280Z,6.60
2019-03-23T10:27:05.981Z,7.50
2019-03-23T10:28:41.754Z,7.33
2019-03-23T10:30:17.686Z,8.70
2019-03-23T10:31:55.683Z,6.87
2019-03-23T10:33:30.852Z,7.60
2019-03-23T10:35:09.206Z,8.00
2019-03-23T10:36:44.789Z,5.60
2019-03-23T10:58:49.873Z,5.80
2019-03-23T11:00:26.036Z,6.70
2019-03-23T11:04:38.897Z,6.20
2019-03-23T11:10:41.535Z,5.80
2019-03-23T11:12:11.067Z,6.60
2019-03-23T11:13:47.001Z,6.40
2019-03-23T11:15:30.542Z,5.80
2019-03-23T11:17:07.647Z,6.47
2019-03-23T11:18:43.356Z,6.00
2019-03-23T11:20:19.447Z,6.17
2019-03-23T11:21:55.632Z,6.53
2019-03-23T11:23:31.671Z,5.93
2019-03-23T11:25:08.827Z,6.43
2019-03-23T11:26:44.616Z,6.83
2019-03-23T11:28:35.962Z,7.40
2019-03-23T11:30:12.334Z,7.27
2019-03-23T11:31:48.600Z,5.77
2019-03-23T11:33:24.958Z,7.23
2019-03-23T11:35:04.234Z,6.77
2019-03-23T11:36:41.594Z,6.37
2019-03-23T11:38:20.397Z,6.93
2019-03-23T11:39:57.404Z,6.80
2019-03-23T11:41:33.170Z,7.93
2019-03-23T11:43:08.919Z,7.30
2019-03-23T11:44:44.922Z,7.37
2019-03-23T11:46:22.741Z,7.10
2019-03-23T11:47:58.646Z,6.23
2019-03-23T11:49:34.869Z,6.80
2019-03-23T11:51:10.820Z,6.87
2019-03-23T11:52:47.180Z,6.60
2019-03-23T11:54:26.767Z,7.17
2019-03-23T11:56:04.383Z,6.80
2019-03-23T11:57:41.983Z,6.87
2019-03-23T11:59:26.108Z,6.17
2019-03-23T12:01:04.944Z,6.60
2019-03-23T12:02:46.228Z,6.23
2019-03-23T12:04:25.217Z,6.87
2019-03-23T12:06:04.403Z,7.73
2019-03-23T12:07:48.117Z,7.13
2019-03-23T12:09:32.555Z,7.20
2019-03-23T12:15:46.666Z,6.80
2019-03-23T12:17:24.776Z,7.10
2019-03-23T12:19:05.544Z,7.50
2019-03-23T12:20:48.242Z,7.60
2019-03-23T12:23:03.615Z,6.13
2019-03-23T12:25:09.079Z,6.23
2019-03-23T12:28:49.287Z,7.53
2019-03-23T12:30:25.206Z,7.43
2019-03-23T12:32:07.830Z,8.07
2019-03-23T12:34:02.716Z,7.93
2019-03-23T12:35:46.133Z,7.47
2019-03-23T12:37:23.236Z,6.50
2019-03-23T12:38:59.056Z,6.57
2019-03-23T12:40:36.839Z,7.10
2019-03-23T12:42:12.914Z,9.00
2019-03-23T12:43:49.387Z,8.00
2019-03-23T12:45:30.746Z,8.20
2019-03-23T12:47:11.145Z,8.57
2019-03-23T12:48:47.588Z,8.93
2019-03-23T12:50:43.651Z,8.67
2019-03-23T12:52:19.471Z,8.43
2019-03-23T12:53:55.467Z,9.07
2019-03-23T12:55:34.104Z,9.30
2019-03-23T12:57:10.111Z,8.93
2019-03-23T12:58:49.318Z,8.27
2019-03-23T13:00:25.433Z,8.97
2019-03-23T13:02:01.435Z,9.30
2019-03-23T13:03:38.763Z,9.10
2019-03-23T13:05:14.935Z,9.70
2019-03-23T13:06:50.679Z,9.87
2019-03-23T13:08:26.399Z,9.90
2019-03-23T13:10:02.205Z,8.80
2019-03-23T13:11:37.971Z,8.80
2019-03-23T13:13:13.756Z,9.60
2019-03-23T13:14:49.755Z,9.77
2019-03-23T13:16:25.731Z,10.13
2019-03-23T13:18:03.066Z,9.50
2019-03-23T13:19:39.033Z,9.13
2019-03-23T13:21:14.849Z,10.10
2019-03-23T13:22:50.867Z,9.77
2019-03-23T13:24:26.632Z,9.00
2019-03-23T13:26:06.854Z,9.20
2019-03-23T13:27:42.868Z,9.63
2019-03-23T13:29:18.608Z,9.00
2019-03-23T13:30:54.488Z,9.90
2019-03-23T13:32:30.273Z,8.97
2019-03-23T13:34:05.890Z,10.60
2019-03-23T13:35:41.715Z,9.83
2019-03-23T13:37:17.617Z,9.87
2019-03-23T13:38:53.240Z,9.90
2019-03-23T13:40:28.824Z,10.20
2019-03-23T13:42:04.487Z,9.73
2019-03-23T13:43:39.431Z,10.03
2019-03-23T13:45:16.488Z,9.33
2019-03-23T13:46:51.425Z,10.67
2019-03-23T13:48:26.340Z,9.07
2019-03-23T13:50:01.233Z,9.63
2019-03-23T13:51:36.930Z,9.70
2019-03-23T13:53:11.869Z,10.57
2019-03-23T13:54:46.762Z,10.17
2019-03-23T13:56:21.668Z,10.40
2019-03-23T13:57:59.530Z,10.53
2019-03-23T13:59:35.360Z,9.67
2019-03-23T14:01:11.017Z,9.60
2019-03-23T14:02:46.857Z,9.37
2019-03-23T14:04:22.470Z,9.43
2019-03-23T14:05:58.057Z,10.03
2019-03-23T14:07:33.649Z,11.43
2019-03-23T14:09:10.113Z,10.57
2019-03-23T14:10:45.986Z,11.27
2019-03-23T14:12:21.578Z,10.37
2019-03-23T14:13:57.172Z,9.90
2019-03-23T14:15:32.927Z,9.80
2019-03-23T14:17:08.573Z,10.73
2019-03-23T14:18:44.395Z,10.87
2019-03-23T14:20:19.981Z,11.33
2019-03-23T14:21:55.652Z,10.60
2019-03-23T14:23:30.606Z,10.77
2019-03-23T14:25:05.904Z,10.37
2019-03-23T14:26:40.835Z,11.20
2019-03-23T14:28:15.807Z,10.03
2019-03-23T14:29:51.046Z,10.67
2019-03-23T14:31:26.214Z,11.07
2019-03-23T14:33:01.402Z,11.67
2019-03-23T14:34:37.843Z,11.57
2019-03-23T14:36:13.860Z,11.93
2019-03-23T14:37:49.971Z,12.10
2019-03-23T14:39:25.824Z,11.83
2019-03-23T14:41:01.480Z,10.83
2019-03-23T14:42:37.300Z,11.17
2019-03-23T14:44:12.966Z,12.03
2019-03-23T14:45:48.548Z,12.07
2019-03-23T14:47:24.136Z,12.10
2019-03-23T14:49:01.881Z,10.83
2019-03-23T14:50:37.632Z,12.23
2019-03-23T14:52:12.568Z,11.23
2019-03-23T14:53:47.723Z,11.70
2019-03-23T14:55:22.666Z,11.57
2019-03-23T14:56:57.834Z,11.83
2019-03-23T14:58:32.764Z,11.50
2019-03-23T15:00:09.638Z,11.37
2019-03-23T15:01:44.570Z,11.57
2019-03-23T15:03:19.706Z,12.10
2019-03-23T15:04:54.716Z,11.57
2019-03-23T15:06:29.626Z,12.27
2019-03-23T15:08:04.551Z,11.87
2019-03-23T15:09:40.357Z,11.97
2019-03-23T15:11:15.956Z,12.43
2019-03-23T15:12:51.569Z,12.17
2019-03-23T15:14:27.209Z,13.10
2019-03-23T15:16:02.804Z,12.43
2019-03-23T15:17:48.226Z,11.87
2019-03-23T15:19:15.971Z,11.77
2019-03-23T15:20:51.897Z,12.17
2019-03-23T15:22:27.740Z,11.93
2019-03-23T15:24:03.819Z,12.70
2019-03-23T15:25:39.567Z,28.33
2019-03-23T15:27:14.929Z,25.73
2019-03-23T15:28:50.088Z,16.97
2019-03-23T15:30:25.483Z,13.67
2019-03-23T15:32:00.914Z,13.87
2019-03-23T15:33:35.852Z,11.00
2019-03-23T15:35:10.814Z,13.80
2019-03-23T15:36:45.954Z,13.57
2019-03-23T15:38:20.960Z,13.90
2019-03-23T15:39:56.613Z,12.73
2019-03-23T15:41:32.485Z,11.27
2019-03-23T15:43:07.510Z,12.20
2019-03-23T15:44:43.068Z,10.97
2019-03-23T15:46:18.690Z,11.40
2019-03-23T15:47:53.640Z,11.73
2019-03-23T15:49:29.186Z,11.90
2019-03-23T15:51:04.273Z,12.00
2019-03-23T15:52:39.483Z,11.20
2019-03-23T15:54:14.390Z,12.47
2019-03-23T15:55:49.343Z,12.73
2019-03-23T15:57:24.363Z,11.60
2019-03-23T15:58:59.545Z,11.53
2019-03-23T16:00:34.518Z,11.50
2019-03-23T16:02:09.542Z,11.83
2019-03-23T16:03:44.867Z,11.47
2019-03-23T16:05:19.846Z,12.63
2019-03-23T16:06:56.757Z,12.20
2019-03-23T16:08:31.403Z,12.77
2019-03-23T16:10:07.373Z,12.57
2019-03-23T16:11:42.575Z,12.20
2019-03-23T16:13:18.294Z,12.63
2019-03-23T16:14:53.470Z,11.50
2019-03-23T16:16:28.380Z,11.17
2019-03-23T16:18:03.615Z,11.47
2019-03-23T16:19:38.797Z,10.80
2019-03-23T16:21:13.701Z,10.83
2019-03-23T16:22:48.593Z,11.17
2019-03-23T16:24:23.494Z,10.80
2019-03-23T16:25:58.434Z,11.23
2019-03-23T16:27:33.602Z,11.00
2019-03-23T16:29:09.703Z,12.13
2019-03-23T16:30:44.766Z,13.20
2019-03-23T16:32:19.720Z,13.80
2019-03-23T16:33:55.193Z,12.57
2019-03-23T16:35:30.828Z,12.73
2019-03-23T16:37:06.498Z,12.80
2019-03-23T16:38:42.644Z,15.03
2019-03-23T16:40:18.342Z,13.20
2019-03-23T16:41:54.482Z,15.13
2019-03-23T16:43:30.405Z,15.10
2019-03-23T16:45:09.267Z,14.67
2019-03-23T16:46:45.367Z,13.80
2019-03-23T16:48:21.217Z,13.47
2019-03-23T16:49:56.820Z,13.60
2019-03-23T16:51:32.445Z,13.37
2019-03-23T16:53:07.390Z,13.37
2019-03-23T16:54:43.440Z,13.17
2019-03-23T16:56:19.325Z,13.97
2019-03-23T16:57:54.918Z,15.17
2019-03-23T16:59:30.774Z,15.20
2019-03-23T17:01:06.715Z,17.20
2019-03-23T17:02:41.765Z,15.90
2019-03-23T17:04:16.890Z,16.20
2019-03-23T17:05:51.793Z,18.53
2019-03-23T17:07:26.695Z,18.20
2019-03-23T17:09:01.630Z,17.77
2019-03-23T17:10:36.782Z,17.73
2019-03-23T17:12:11.678Z,18.33
2019-03-23T17:13:46.836Z,19.73
2019-03-23T17:15:21.754Z,19.60
2019-03-23T17:16:56.750Z,19.40
2019-03-23T17:18:31.725Z,21.50
2019-03-23T17:20:07.901Z,23.37
2019-03-23T17:21:42.846Z,25.13
2019-03-23T17:23:17.745Z,27.70
2019-03-23T17:24:52.634Z,28.00
2019-03-23T17:26:28.043Z,30.73
2019-03-23T17:28:03.199Z,33.30
2019-03-23T17:29:38.090Z,35.13
2019-03-23T17:31:13.235Z,37.37
2019-03-23T17:32:48.143Z,37.50
2019-03-23T17:34:23.318Z,36.27
2019-03-23T17:35:58.942Z,40.03
2019-03-23T17:37:33.849Z,40.60
2019-03-23T17:39:08.840Z,41.20
2019-03-23T17:40:43.983Z,41.10
2019-03-23T17:42:18.942Z,42.73
2019-03-23T17:43:54.151Z,42.80
2019-03-23T17:45:29.092Z,43.67
2019-03-23T17:47:04.098Z,44.30
2019-03-23T17:48:39.002Z,44.50
2019-03-23T17:50:14.149Z,45.63
2019-03-23T17:51:49.063Z,46.00
2019-03-23T17:53:25.184Z,46.23
2019-03-23T17:55:00.997Z,44.37
2019-03-23T17:56:36.923Z,46.07
2019-03-23T17:58:12.821Z,44.53
2019-03-23T17:59:48.452Z,45.03
2019-03-23T18:01:24.083Z,44.80
2019-03-23T18:03:00.030Z,44.60
2019-03-23T18:04:35.629Z,43.83
2019-03-23T18:06:11.545Z,42.77
2019-03-23T18:07:47.493Z,45.63
2019-03-23T18:09:23.194Z,43.50
2019-03-23T18:10:58.796Z,43.13
2019-03-23T18:12:33.763Z,41.47
2019-03-23T18:14:08.966Z,41.77
2019-03-23T18:15:43.865Z,41.70
2019-03-23T18:17:19.349Z,43.47
2019-03-23T18:18:54.329Z,43.17
2019-03-23T18:20:29.506Z,41.97
2019-03-23T18:22:04.948Z,42.27
2019-03-23T18:23:40.178Z,40.70
2019-03-23T18:25:15.413Z,41.17
2019-03-23T18:26:50.579Z,41.47
2019-03-23T18:28:26.287Z,41.83
2019-03-23T18:30:01.198Z,41.53
2019-03-23T18:31:36.105Z,42.47
2019-03-23T18:33:11.258Z,40.97
2019-03-23T18:34:46.481Z,44.27
2019-03-23T18:36:21.374Z,43.50
2019-03-23T18:37:56.277Z,43.47
2019-03-23T18:39:31.263Z,42.07
2019-03-23T18:41:06.271Z,43.20
2019-03-23T18:42:41.539Z,42.13
2019-03-23T18:44:16.820Z,40.97
2019-03-23T18:45:52.214Z,42.83
2019-03-23T18:47:27.221Z,41.27
2019-03-23T18:49:02.426Z,39.93
2019-03-23T18:50:37.406Z,38.03
2019-03-23T18:52:12.626Z,39.00
2019-03-23T18:53:47.577Z,38.13
2019-03-23T18:55:22.482Z,36.37
2019-03-23T18:56:57.484Z,39.77
2019-03-23T18:58:32.678Z,38.77
2019-03-23T19:00:08.710Z,38.23
2019-03-23T19:01:43.635Z,37.43
2019-03-23T19:03:18.587Z,38.07
2019-03-23T19:04:53.493Z,36.83
2019-03-23T19:06:28.429Z,37.23
2019-03-23T19:08:03.488Z,35.63
2019-03-23T19:09:38.933Z,34.50
2019-03-23T19:11:15.031Z,33.10
2019-03-23T19:12:50.078Z,33.47
2019-03-23T19:14:24.995Z,33.83
2019-03-23T19:16:00.241Z,31.97
2019-03-23T19:17:35.154Z,32.00
2019-03-23T19:19:10.119Z,32.43
2019-03-23T19:20:45.035Z,33.53
2019-03-23T19:22:19.950Z,33.87
2019-03-23T19:23:54.866Z,31.83
2019-03-23T19:25:29.872Z,31.30
2019-03-23T19:27:05.299Z,30.33
2019-03-23T19:28:40.284Z,31.17
2019-03-23T19:30:15.569Z,32.20
2019-03-23T19:31:50.494Z,32.73
2019-03-23T19:33:25.423Z,32.60
2019-03-23T19:35:00.390Z,30.87
2019-03-23T19:36:35.896Z,30.47
2019-03-23T19:38:11.138Z,31.63
2019-03-23T19:39:46.340Z,32.97
2019-03-23T19:41:22.214Z,35.43
2019-03-23T19:42:59.484Z,34.70
2019-03-23T19:44:34.106Z,37.10
2019-03-23T19:46:09.310Z,36.33
2019-03-23T19:47:44.544Z,36.30
2019-03-23T19:49:19.454Z,34.83
2019-03-23T19:50:54.478Z,35.37
2019-03-23T19:52:29.393Z,33.97
2019-03-23T19:54:04.968Z,35.47
2019-03-23T19:55:40.299Z,34.33
2019-03-23T19:57:15.349Z,33.43
2019-03-23T19:58:50.259Z,33.03
2019-03-23T20:00:25.255Z,32.13
2019-03-23T20:02:00.232Z,31.10
2019-03-23T20:03:35.336Z,31.10
2019-03-23T20:05:10.670Z,31.23
2019-03-23T20:06:45.912Z,32.27
2019-03-23T20:08:20.827Z,30.80
2019-03-23T20:09:55.830Z,30.37
2019-03-23T20:11:30.861Z,30.87
2019-03-23T20:13:05.981Z,30.77
2019-03-23T20:14:41.798Z,30.23
2019-03-23T20:16:16.880Z,32.70
2019-03-23T20:17:51.799Z,31.60
2019-03-23T20:19:26.693Z,29.90
2019-03-23T20:21:01.878Z,30.80
2019-03-23T20:22:36.898Z,31.73
2019-03-23T20:24:12.184Z,31.93
2019-03-23T20:25:47.671Z,31.97
2019-03-23T20:27:22.960Z,31.20
2019-03-23T20:28:57.988Z,32.40
2019-03-23T20:30:33.002Z,31.37
2019-03-23T20:32:08.299Z,31.50
2019-03-23T20:33:43.495Z,31.77
2019-03-23T20:35:18.419Z,29.80
2019-03-23T20:36:53.659Z,31.27
2019-03-23T20:38:28.962Z,29.47
2019-03-23T20:40:04.565Z,30.77
2019-03-23T20:41:39.562Z,32.40
2019-03-23T20:43:14.580Z,32.33
2019-03-23T20:44:49.477Z,33.40
2019-03-23T20:46:25.198Z,33.70
2019-03-23T20:48:00.581Z,31.50
2019-03-23T20:49:35.835Z,32.73
2019-03-23T20:51:11.681Z,32.10
2019-03-23T20:52:47.144Z,34.03
2019-03-23T20:54:22.145Z,32.33
2019-03-23T20:55:57.203Z,33.90
2019-03-23T20:57:37.449Z,32.50
2019-03-23T20:59:09.404Z,32.70
2019-03-23T21:00:44.399Z,33.27
2019-03-23T21:02:19.453Z,32.57
2019-03-23T21:03:54.375Z,33.37
2019-03-23T21:05:34.152Z,33.07
2019-03-23T21:07:06.510Z,34.87
2019-03-23T21:08:41.411Z,33.87
2019-03-23T21:10:16.419Z,33.67
2019-03-23T21:11:51.394Z,32.87
2019-03-23T21:13:29.959Z,33.07